Flight Track Log - Related Links

Times and Time Zones

All times are in EDT time to prevent confusion due to time zone crossing. See the ASQ5750 flight status page for this flight to view local times or setup timezone preferences in your user account.

Time Position Orientation Groundspeed Altitude Reporting Facility
EDT Latitude Longitude Course Direction KTS MPH feet Rate Location/Type
Sat 11:45:28 AM 42.8086 -73.8381 334° Northwest 198 228 3,900  Level Boston Center
Sat 11:46:28 AM 42.8306 -73.9181 291° West 223 257 6,400 2,900 Climbing Boston Center
Sat 11:47:28 AM 42.8564 -74.0119 291° West 249 287 9,700 3,250 Climbing Boston Center
Sat 11:48:28 AM 42.8906 -74.0922 300° West 255 293 12,900 2,750 Climbing Boston Center
Sat 11:49:28 AM 42.9394 -74.1758 309° West 267 307 15,200 2,450 Climbing Boston Center
Sat 11:50:28 AM 42.9903 -74.2594 310° West 286 329 17,800 1,950 Climbing Boston Center
Sat 11:51:28 AM 43.0389 -74.3378 310° West 286 329 19,100 1,800 Climbing Boston Center
Sat 11:52:28 AM 43.0833 -74.4328 303° West 297 342 21,400 1,800 Climbing Boston Center
Sat 11:53:28 AM 43.0875 -74.5497 273° West 292 336 22,700 1,450 Climbing Boston Center
Sat 11:54:28 AM 43.0933 -74.6750 274° West 311 358 24,300 1,550 Climbing Boston Center
Sat 11:55:28 AM 43.0992 -74.8003 274° West 328 377 25,800 1,350 Climbing Boston Center
Sat 11:56:28 AM 43.1047 -74.9256 274° West 328 377 27,000 1,000 Climbing Boston Center
Sat 11:57:28 AM 43.1125 -75.0539 275° West 333 383 27,800 850 Climbing Boston Center
Sat 11:58:28 AM 43.1197 -75.1881 274° West 346 398 28,700 950 Climbing Boston Center
Sat 11:59:28 AM 43.1247 -75.3247 273° West 357 411 29,700 950 Climbing Boston Center
Sat 12:00:28 PM 43.1294 -75.4617 273° West 362 417 30,600 900 Climbing Boston Center
Sat 12:01:28 PM 43.1361 -75.5986 274° West 362 417 31,500 800 Climbing Boston Center
Sat 12:02:28 PM 43.1428 -75.7328 274° West 367 422 32,200 700 Climbing Boston Center
Sat 12:03:28 PM 43.1492 -75.8697 274° West 367 422 32,900 650 Climbing Boston Center
Sat 12:04:28 PM 43.1553 -76.0094 273° West 367 422 33,500 550 Climbing Boston Center
Sat 12:05:28 PM 43.1594 -76.1436 272° West 367 422 34,000 152 Climbing Boston Center
Sat 12:07:45 PM 43.1606 -76.4758 270° West 365 420 34,000  Level Cleveland Center
Sat 12:08:45 PM 43.1614 -76.6153 271° West 365 420 34,000  Level Cleveland Center
Sat 12:09:45 PM 43.1611 -76.7378 270° West 365 420 34,000  Level Cleveland Center
Sat 12:10:45 PM 43.1594 -76.8772 269° West 365 420 34,000  Level Cleveland Center
Sat 12:11:45 PM 43.1597 -77.0169 270° West 365 420 34,000  Level Cleveland Center
Sat 12:12:45 PM 43.1575 -77.1536 269° West 365 420 34,000 250 Level Cleveland Center
Sat 12:13:45 PM 43.1575 -77.2931 270° West 365 420 34,500 650 Climbing Cleveland Center
Sat 12:14:45 PM 43.1550 -77.4328 269° West 370 426 35,300 750 Climbing Cleveland Center
Sat 12:15:45 PM 43.1547 -77.5694 270° West 365 420 36,000 350 Climbing Cleveland Center
Sat 12:16:45 PM 43.1539 -77.7031 270° West 365 420 36,000  Level Cleveland Center
Sat 12:17:45 PM 43.1508 -77.8400 268° West 365 420 36,000  Level Cleveland Center
Sat 12:18:45 PM 43.1500 -77.9767 270° West 365 420 36,000  Level Cleveland Center
Sat 12:19:45 PM 43.1467 -78.1189 268° West 370 426 36,000  Level Cleveland Center
Sat 12:20:45 PM 43.1456 -78.2586 269° West 370 426 36,000  Level Cleveland Center
Sat 12:21:45 PM 43.1419 -78.4036 268° West 370 426 36,000  Level Cleveland Center
Sat 12:22:46 PM 43.1383 -78.5406 268° West 370 426 36,000  Level Cleveland Center
Sat 12:23:45 PM 43.1344 -78.6800 268° West 370 426 36,000  Level Cleveland Center
Sat 12:24:45 PM 43.1325 -78.8194 269° West 370 426 36,000  Level Cleveland Center
Sat 12:25:34 PM 43.1167 -78.9333 259° West 370 426 36,000  Level Toronto Center
Sat 12:26:34 PM 43.1167 -79.0667 270° West 370 426 36,000  Level Toronto Center
Sat 12:27:34 PM 43.1167 -79.2000 270° West 360 414 36,000  Level Toronto Center
Sat 12:28:34 PM 43.1000 -79.3333 260° West 360 414 36,000  Level Toronto Center
Sat 12:29:34 PM 43.1000 -79.4667 270° West 360 414 36,000  Level Toronto Center
Sat 12:30:34 PM 43.1000 -79.6167 270° West 360 414 36,000  Level Toronto Center
Sat 12:31:34 PM 43.0833 -79.7500 260° West 360 414 36,000  Level Toronto Center
Sat 12:32:34 PM 43.0833 -79.8833 270° West 360 414 36,000  Level Toronto Center
Sat 12:33:34 PM 43.0833 -80.0167 270° West 360 414 36,000  Level Toronto Center
Sat 12:34:34 PM 43.0667 -80.1500 260° West 360 414 36,000  Level Toronto Center
Sat 12:35:34 PM 43.0667 -80.3000 270° West 360 414 36,000  Level Toronto Center
Sat 12:36:34 PM 43.0667 -80.4333 270° West 360 414 36,000  Level Toronto Center
Sat 12:37:34 PM 43.0500 -80.5667 260° West 360 414 36,000  Level Toronto Center
Sat 12:38:34 PM 43.0500 -80.7000 270° West 360 414 36,000  Level Toronto Center
Sat 12:39:34 PM 43.0333 -80.8500 261° West 360 414 36,000  Level Toronto Center
Sat 12:40:34 PM 43.0333 -80.9833 270° West 360 414 36,000  Level Toronto Center
Sat 12:41:34 PM 43.0167 -81.1167 260° West 360 414 36,000  Level Toronto Center
Sat 12:42:34 PM 43.0167 -81.2500 270° West 360 414 36,000  Level Toronto Center
Sat 12:43:34 PM 43.0167 -81.3833 270° West 360 414 36,000  Level Toronto Center
Sat 12:44:34 PM 43.0167 -81.5333 270° West 360 414 36,000  Level Toronto Center
Sat 12:45:34 PM 43.0167 -81.6667 270° West 360 414 36,000  Level Toronto Center
Sat 12:46:34 PM 43.0167 -81.8000 270° West 360 414 36,000  Level Toronto Center
Sat 12:47:34 PM 43.0000 -81.9333 260° West 360 414 36,000  Level Toronto Center
Sat 12:48:34 PM 43.0000 -82.0667 270° West 360 414 36,000  Level Toronto Center
Sat 12:49:34 PM 43.0000 -82.2167 270° West 360 414 36,000  Level Toronto Center
Sat 12:50:34 PM 43.0000 -82.3500 270° West 360 414 36,000  Level Toronto Center
Sat 12:51:34 PM 43.0000 -82.5000 270° West 360 414 36,000  Level Toronto Center
Sat 12:52:34 PM 43.0000 -82.6167 270° West 360 414 36,000  Level Toronto Center
Sat 12:52:57 PM 43.0039 -82.6811 275° West 363 418 36,000 -361 Level Cleveland Center
Sat 12:53:57 PM 42.9992 -82.8172 267° West 363 418 35,500 -750 Descending Cleveland Center
Sat 12:54:57 PM 42.9939 -82.9703 267° West 378 435 34,500 -1,000 Descending Cleveland Center
Sat 12:55:57 PM 42.9908 -83.1264 269° West 399 459 33,500 -1,000 Descending Cleveland Center
Sat 12:56:57 PM 42.9831 -83.2794 266° West 406 467 32,500 -750 Descending Cleveland Center
Sat 12:57:57 PM 42.9792 -83.4353 268° West 412 474 32,000 -250 Descending Cleveland Center
Sat 12:58:57 PM 42.9731 -83.5967 267° West 418 481 32,000  Level Cleveland Center
Sat 12:59:57 PM 42.9647 -83.7525 266° West 418 481 32,000  Level Cleveland Center
Sat 01:00:57 PM 42.9500 -83.9106 263° West 423 487 32,000  Level Cleveland Center
Sat 01:01:57 PM 42.9347 -84.0714 263° West 423 487 32,000  Level Cleveland Center
Sat 01:02:57 PM 42.9194 -84.2322 263° West 423 487 32,000  Level Cleveland Center
Sat 01:03:57 PM 42.9033 -84.4014 263° West 423 487 32,000  Level Cleveland Center
Sat 01:05:13 PM 42.8850 -84.5833 262° West 422 486 32,000  Level Chicago Center
Sat 01:06:15 PM 42.8683 -84.7436 262° West 426 490 32,000  Level Chicago Center
Sat 01:07:16 PM 42.8519 -84.9006 262° West 422 486 32,000  Level Chicago Center
Sat 01:08:18 PM 42.8308 -85.0925 262° West 426 490 32,000  Level Chicago Center
Sat 01:09:19 PM 42.8147 -85.2531 262° West 427 491 32,000  Level Chicago Center
Sat 01:10:21 PM 42.7967 -85.4142 261° West 431 496 32,000 -968 Level Chicago Center
Sat 01:11:23 PM 42.7733 -85.5753 259° West 434 499 30,000 -2,098 Descending Chicago Center
Sat 01:12:24 PM 42.7453 -85.7300 256° West 421 484 27,700 -2,195 Descending Chicago Center
Sat 01:13:26 PM 42.7186 -85.8778 256° West 405 466 25,500 -2,098 Descending Chicago Center
Sat 01:14:27 PM 42.6928 -86.0219 256° West 393 452 23,400 -2,000 Descending Chicago Center
Sat 01:15:29 PM 42.6667 -86.1625 256° West 383 441 21,400 -1,645 Descending Chicago Center
Sat 01:16:31 PM 42.6411 -86.3025 256° West 381 438 20,000 -780 Descending Chicago Center
Sat 01:17:32 PM 42.6144 -86.4389 255° West 376 433 19,800 -1,122 Descending Chicago Center
Sat 01:18:34 PM 42.5853 -86.5992 256° West 362 417 17,700 -1,984 Descending Chicago Center
Sat 01:19:36 PM 42.5614 -86.7272 256° West 351 404 15,700 -1,902 Descending Chicago Center
Sat 01:20:37 PM 42.5289 -86.8483 250° West 346 398 13,800 -1,756 Descending Chicago Center
Sat 01:21:39 PM 42.4967 -86.9706 250° West 339 390 12,100 -1,694 Descending Chicago Center
Sat 01:22:41 PM 42.4625 -87.0828 248° West 334 384 10,300 -1,016 Descending Chicago Center
Sat 01:23:43 PM 42.4322 -87.1925 250° West 318 366 10,000 -581 Descending Chicago Center
Sat 01:24:45 PM 42.4053 -87.2911 250° West 290 334 9,100 -732 Descending Chicago Center
Sat 01:25:46 PM 42.3742 -87.4086 250° West 279 321 8,500 -780 Descending Chicago Center
Sat 01:26:48 PM 42.3464 -87.5019 248° West 273 314 7,500 -726 Descending Chicago Center
Sat 01:27:50 PM 42.2958 -87.5667 223° Southwest 249 287 7,000 -242 Descending Chicago Center
Sat 01:28:52 PM 42.2439 -87.6281 221° Southwest 246 283 7,000 -537 Level Chicago Center
Sat 01:29:53 PM 42.1892 -87.6819 216° Southwest 243 280 5,900 -1,171 Descending Chicago Center
Sat 01:30:55 PM 42.1425 -87.7356 220° Southwest 227 261 4,600 -1,341 Descending Chicago Center
Sat 01:31:18 PM 42.1167 -87.7667 222° Southwest 204 235 4,000 -1,229 Descending Chicago TRACON
Sat 01:32:18 PM 42.0833 -87.8000 217° Southwest 185 213 2,900 -1,000 Descending Chicago TRACON
Sat 01:33:18 PM 42.0500 -87.8500 228° Southwest 158 182 2,000 -850 Descending Chicago TRACON
Sat 01:34:18 PM 42.0167 -87.8833 217° Southwest 135 155 1,200 -800 Descending Chicago TRACON
Sat 01:36:00 PM 41.9817 -87.9067 180° South  Level Estimated
Sat 01:43:00 PM 41.9817 -87.9067 180° South  Level Estimated

Login

Don't have an account? Register now (free) for customized features, flight alerts, and more!